createdAt,value
2018-09-12T00:00:46.082Z,95336.78
2018-09-12T00:03:14.708Z,95339.02
2018-09-12T00:05:43.350Z,95341.19
2018-09-12T00:08:11.986Z,95342.02
2018-09-12T00:10:40.611Z,95337.02
2018-09-12T00:13:09.237Z,95336.19
2018-09-12T00:15:37.851Z,95336.93
2018-09-12T00:18:06.488Z,95327.52
2018-09-12T00:20:35.119Z,95339.24
2018-09-12T00:23:03.771Z,95336.55
2018-09-12T00:25:32.431Z,95334.27
2018-09-12T00:28:01.181Z,95336.49
2018-09-12T00:30:29.842Z,95342.16
2018-09-12T00:32:58.490Z,95344.13
2018-09-12T00:35:27.119Z,95345.81
2018-09-12T00:37:55.804Z,95346.28
2018-09-12T00:40:24.428Z,95343.94
2018-09-12T00:42:53.068Z,95345.48
2018-09-12T00:45:21.704Z,95342.47
2018-09-12T00:47:50.310Z,95343.66
2018-09-12T00:50:18.964Z,95350.97
2018-09-12T00:52:47.620Z,95355.14
2018-09-12T00:55:16.220Z,95355.98
2018-09-12T00:57:44.843Z,95354.75
2018-09-12T01:00:13.514Z,95361.58
2018-09-12T01:02:42.152Z,95363.50
2018-09-12T01:05:10.960Z,95365.20
2018-09-12T01:07:39.601Z,95367.58
2018-09-12T01:10:08.264Z,95361.95
2018-09-12T01:12:36.927Z,95361.46
2018-09-12T01:15:05.670Z,95360.22
2018-09-12T01:17:34.300Z,95362.91
2018-09-12T01:20:02.947Z,95356.50
2018-09-12T01:22:31.582Z,95363.02
2018-09-12T01:25:00.316Z,95362.77
2018-09-12T01:27:28.959Z,95365.00
2018-09-12T01:29:57.591Z,95370.39
2018-09-12T01:32:26.323Z,95372.75
2018-09-12T01:34:55.382Z,95368.27
2018-09-12T01:37:24.014Z,95365.09
2018-09-12T01:39:52.643Z,95366.77
2018-09-12T01:42:21.342Z,95366.70
2018-09-12T01:44:50.079Z,95372.25
2018-09-12T01:47:18.693Z,95365.30
2018-09-12T01:49:47.369Z,95363.48
2018-09-12T01:52:15.973Z,95367.73
2018-09-12T01:54:44.586Z,95367.00
2018-09-12T01:57:13.203Z,95366.08
2018-09-12T01:59:41.851Z,95374.25
2018-09-12T02:02:10.563Z,95369.92
2018-09-12T02:04:39.240Z,95368.16
2018-09-12T02:07:07.925Z,95366.39
2018-09-12T02:09:36.574Z,95368.73
2018-09-12T02:12:05.245Z,95368.97
2018-09-12T02:14:33.936Z,95366.16
2018-09-12T02:17:03.100Z,95367.20
2018-09-12T02:19:31.747Z,95368.48
2018-09-12T02:23:29.696Z,95364.64
2018-09-12T02:25:58.381Z,95363.80
2018-09-12T02:28:27.028Z,95363.53
2018-09-12T02:30:55.784Z,95364.00
2018-09-12T02:33:24.540Z,95366.47
2018-09-12T02:35:58.339Z,95367.78
2018-09-12T02:38:26.992Z,95357.61
2018-09-12T02:40:55.893Z,95365.41
2018-09-12T02:43:24.694Z,95359.52
2018-09-12T02:45:53.497Z,95361.41
2018-09-12T02:48:22.348Z,95357.48
2018-09-12T02:50:51.168Z,95356.50
2018-09-12T02:53:19.959Z,95364.71
2018-09-12T02:55:48.723Z,95363.59
2018-09-12T02:58:17.501Z,95365.09
2018-09-12T03:00:46.327Z,95364.75
2018-09-12T03:03:15.077Z,95363.30
2018-09-12T03:05:43.848Z,95360.55
2018-09-12T03:08:12.772Z,95357.28
2018-09-12T03:10:41.536Z,95357.19
2018-09-12T03:13:10.290Z,95358.63
2018-09-12T03:15:39.025Z,95359.95
2018-09-12T03:18:07.762Z,95354.94
2018-09-12T03:20:36.530Z,95355.45
2018-09-12T03:23:05.174Z,95366.27
2018-09-12T03:25:33.835Z,95365.61
2018-09-12T03:28:02.490Z,95360.42
2018-09-12T03:30:31.109Z,95362.39
2018-09-12T03:32:59.768Z,95361.63
2018-09-12T03:35:28.432Z,95360.20
2018-09-12T03:37:57.075Z,95369.34
2018-09-12T03:40:25.737Z,95366.44
2018-09-12T03:42:54.329Z,95370.53
2018-09-12T03:45:23.065Z,95368.28
2018-09-12T03:47:51.831Z,95365.34
2018-09-12T03:50:20.455Z,95367.78
2018-09-12T03:52:49.118Z,95374.52
2018-09-12T03:55:17.842Z,95377.72
2018-09-12T03:57:46.511Z,95373.00
2018-09-12T04:00:15.910Z,95379.88
2018-09-12T04:02:44.620Z,95385.77
2018-09-12T04:05:13.347Z,95388.07
2018-09-12T04:07:41.976Z,95388.73
2018-09-12T04:10:10.644Z,95383.66
2018-09-12T04:12:39.326Z,95388.70
2018-09-12T04:15:08.205Z,95393.27
2018-09-12T04:17:37.888Z,95385.44
2018-09-12T04:20:06.576Z,95390.01
2018-09-12T04:22:35.175Z,95385.41
2018-09-12T04:25:03.889Z,95385.73
2018-09-12T04:27:32.545Z,95391.11
2018-09-12T04:30:01.212Z,95392.56
2018-09-12T04:32:29.956Z,95396.03
2018-09-12T04:34:58.636Z,95392.23
2018-09-12T04:37:27.321Z,95394.55
2018-09-12T04:39:55.956Z,95398.41
2018-09-12T04:42:25.019Z,95400.37
2018-09-12T04:44:53.684Z,95408.17
2018-09-12T04:47:22.404Z,95413.88
2018-09-12T04:49:51.083Z,95419.58
2018-09-12T04:52:19.717Z,95423.94
2018-09-12T04:54:48.386Z,95426.70
2018-09-12T04:57:17.079Z,95422.42
2018-09-12T04:59:45.787Z,95423.55
2018-09-12T05:02:14.494Z,95422.20
2018-09-12T05:04:43.144Z,95428.89
2018-09-12T05:07:11.816Z,95424.28
2018-09-12T05:09:41.991Z,95428.20
2018-09-12T05:12:10.664Z,95428.92
2018-09-12T05:14:39.604Z,95429.11
2018-09-12T05:17:08.321Z,95432.88
2018-09-12T05:19:37.104Z,95434.63
2018-09-12T05:22:06.017Z,95433.31
2018-09-12T05:24:34.713Z,95432.48
2018-09-12T05:27:03.576Z,95429.96
2018-09-12T05:29:32.289Z,95437.25
2018-09-12T05:32:00.973Z,95433.47
2018-09-12T05:34:29.719Z,95432.08
2018-09-12T05:36:58.464Z,95432.04
2018-09-12T05:39:27.197Z,95432.20
2018-09-12T05:41:55.916Z,95430.66
2018-09-12T05:44:24.596Z,95425.52
2018-09-12T05:46:53.247Z,95425.98
2018-09-12T05:49:21.951Z,95425.31
2018-09-12T05:51:50.649Z,95432.45
2018-09-12T05:54:19.343Z,95431.19
2018-09-12T05:56:48.062Z,95437.53
2018-09-12T05:59:16.739Z,95434.14
2018-09-12T06:01:45.521Z,95437.67
2018-09-12T06:04:14.223Z,95434.36
2018-09-12T06:06:42.972Z,95433.69
2018-09-12T06:09:11.715Z,95434.89
2018-09-12T06:11:40.371Z,95427.43
2018-09-12T06:14:09.310Z,95426.64
2018-09-12T06:16:37.987Z,95429.56
2018-09-12T06:19:06.713Z,95432.73
2018-09-12T06:21:35.711Z,95434.23
2018-09-12T06:24:04.444Z,95426.88
2018-09-12T06:26:33.219Z,95423.73
2018-09-12T06:30:06.576Z,95431.10
2018-09-12T06:32:35.440Z,95423.97
2018-09-12T06:35:04.300Z,95426.25
2018-09-12T06:37:33.292Z,95422.39
2018-09-12T06:40:02.384Z,95426.34
2018-09-12T06:42:31.369Z,95416.90
2018-09-12T06:45:00.342Z,95421.26
2018-09-12T06:47:29.742Z,95418.30
2018-09-12T06:49:59.149Z,95416.33
2018-09-12T06:52:30.318Z,95419.95
2018-09-12T06:54:59.180Z,95416.47
2018-09-12T06:57:28.444Z,95423.57
2018-09-12T06:59:57.197Z,95417.31
2018-09-12T07:02:26.220Z,95416.93
2018-09-12T07:04:55.216Z,95424.47
2018-09-12T07:07:24.392Z,95425.63
2018-09-12T07:09:53.208Z,95424.42
2018-09-12T07:12:22.394Z,95425.16
2018-09-12T07:14:51.405Z,95414.98
2018-09-12T07:17:20.283Z,95419.25
2018-09-12T07:19:49.209Z,95416.52
2018-09-12T07:22:18.039Z,95418.98
2018-09-12T07:24:46.913Z,95417.27
2018-09-12T07:27:15.973Z,95421.00
2018-09-12T07:29:44.880Z,95427.50
2018-09-12T07:32:13.983Z,95422.55
2018-09-12T07:34:42.821Z,95422.21
2018-09-12T07:37:11.825Z,95419.19
2018-09-12T07:39:40.787Z,95417.59
2018-09-12T07:42:09.987Z,95420.61
2018-09-12T07:44:38.960Z,95421.27
2018-09-12T07:47:07.884Z,95417.78
2018-09-12T07:49:36.870Z,95417.85
2018-09-12T07:52:05.993Z,95423.18
2018-09-12T07:54:34.864Z,95416.15
2018-09-12T07:57:03.845Z,95413.46
2018-09-12T07:59:32.861Z,95415.17
2018-09-12T08:02:01.718Z,95412.70
2018-09-12T08:04:30.645Z,95413.72
2018-09-12T08:06:59.930Z,95414.81
2018-09-12T08:09:28.924Z,95403.69
2018-09-12T08:11:57.878Z,95410.59
2018-09-12T08:14:26.613Z,95406.89
2018-09-12T08:16:55.536Z,95398.98
2018-09-12T08:19:24.469Z,95398.22
2018-09-12T08:21:53.401Z,95395.67
2018-09-12T08:24:22.380Z,95386.66
2018-09-12T08:26:51.314Z,95394.89
2018-09-12T08:29:20.231Z,95392.74
2018-09-12T08:31:49.190Z,95388.36
2018-09-12T08:34:18.217Z,95384.84
2018-09-12T08:36:47.145Z,95380.95
2018-09-12T08:39:16.038Z,95381.78
2018-09-12T08:41:44.873Z,95384.19
2018-09-12T08:44:13.695Z,95381.69
2018-09-12T08:46:42.693Z,95378.23
2018-09-12T08:49:11.561Z,95376.54
2018-09-12T08:51:40.673Z,95377.67
2018-09-12T08:54:09.600Z,95376.03
2018-09-12T08:56:38.530Z,95377.95
2018-09-12T08:59:07.480Z,95377.67
2018-09-12T09:01:36.410Z,95368.00
2018-09-12T09:04:05.332Z,95363.67
2018-09-12T09:06:34.235Z,95368.14
2018-09-12T09:09:03.082Z,95359.14
2018-09-12T09:11:31.889Z,95355.49
2018-09-12T09:14:00.929Z,95350.91
2018-09-12T09:16:29.846Z,95350.80
2018-09-12T09:18:58.652Z,95357.33
2018-09-12T09:21:27.580Z,95353.06
2018-09-12T09:23:56.305Z,95351.00
2018-09-12T09:26:25.237Z,95350.89
2018-09-12T09:28:55.214Z,95355.12
2018-09-12T09:31:24.107Z,95351.64
2018-09-12T09:33:53.080Z,95340.86
2018-09-12T09:36:22.002Z,95344.87
2018-09-12T09:38:50.875Z,95336.61
2018-09-12T09:41:19.676Z,95333.83
2018-09-12T09:43:48.630Z,95341.66
2018-09-12T09:46:17.717Z,95337.66
2018-09-12T09:48:46.825Z,95334.98
2018-09-12T09:51:15.905Z,95329.76
2018-09-12T09:53:44.857Z,95338.22
2018-09-12T09:56:13.893Z,95336.47
2018-09-12T09:58:42.798Z,95335.48
2018-09-12T10:01:16.747Z,95336.30
2018-09-12T10:03:51.225Z,95338.34
2018-09-12T10:06:21.413Z,95334.45
2018-09-12T10:08:55.502Z,95330.39
2018-09-12T10:11:24.730Z,95332.15
2018-09-12T10:13:53.943Z,95326.55
2018-09-12T10:16:23.194Z,95322.89
2018-09-12T10:18:52.316Z,95315.70
2018-09-12T10:21:21.129Z,95313.41
2018-09-12T10:23:50.169Z,95311.23
2018-09-12T10:26:19.166Z,95303.77
2018-09-12T10:28:48.136Z,95305.14
2018-09-12T10:31:17.049Z,95305.91
2018-09-12T10:33:45.913Z,95303.12
2018-09-12T10:36:14.737Z,95307.57
2018-09-12T10:38:43.672Z,95305.95
2018-09-12T10:41:12.385Z,95295.31
2018-09-12T10:43:41.241Z,95292.63
2018-09-12T10:46:10.090Z,95299.59
2018-09-12T10:48:53.275Z,95304.13
2018-09-12T10:51:22.269Z,95303.24
2018-09-12T10:53:51.161Z,95301.02
2018-09-12T10:56:20.021Z,95300.58
2018-09-12T10:58:49.024Z,95298.26
2018-09-12T11:01:18.100Z,95294.23
2018-09-12T11:03:46.865Z,95296.63
2018-09-12T11:06:15.728Z,95293.50
2018-09-12T11:08:44.609Z,95288.70
2018-09-12T11:11:13.742Z,95287.77
2018-09-12T11:13:42.569Z,95286.48
2018-09-12T11:16:11.453Z,95290.56
2018-09-12T11:18:40.361Z,95287.61
2018-09-12T11:21:09.255Z,95286.23
2018-09-12T11:23:38.053Z,95284.36
2018-09-12T11:26:07.260Z,95277.74
2018-09-12T11:29:39.277Z,95278.26
2018-09-12T11:32:08.232Z,95276.27
2018-09-12T11:34:37.039Z,95269.56
2018-09-12T11:37:06.411Z,95272.55
2018-09-12T11:39:35.355Z,95266.77
2018-09-12T11:42:04.354Z,95262.58
2018-09-12T11:44:33.126Z,95258.20
2018-09-12T11:47:01.969Z,95257.64
2018-09-12T11:49:30.860Z,95252.89
2018-09-12T11:51:59.916Z,95255.58
2018-09-12T11:54:29.142Z,95240.94
2018-09-12T11:56:58.057Z,95238.45
2018-09-12T11:59:26.963Z,95244.59
2018-09-12T12:01:55.894Z,95237.59
2018-09-12T12:04:24.745Z,95227.95
2018-09-12T12:06:53.692Z,95231.42
2018-09-12T12:09:22.540Z,95230.37
2018-09-12T12:11:51.559Z,95230.14
2018-09-12T12:14:20.597Z,95220.51
2018-09-12T12:16:49.457Z,95226.83
2018-09-12T12:19:18.279Z,95221.28
2018-09-12T12:21:47.103Z,95225.07
2018-09-12T12:24:16.018Z,95224.48
2018-09-12T12:26:44.971Z,95218.44
2018-09-12T12:29:13.921Z,95217.17
2018-09-12T12:31:42.790Z,95213.59
2018-09-12T12:34:12.809Z,95218.39
2018-09-12T12:36:41.763Z,95216.95
2018-09-12T12:39:11.965Z,95213.32
2018-09-12T12:41:40.825Z,95213.00
2018-09-12T12:44:09.793Z,95211.89
2018-09-12T12:46:38.638Z,95211.70
2018-09-12T12:49:07.449Z,95206.37
2018-09-12T12:51:37.190Z,95211.16
2018-09-12T12:54:06.105Z,95205.42
2018-09-12T12:56:34.965Z,95212.53
2018-09-12T12:59:04.022Z,95212.11
2018-09-12T13:01:32.957Z,95201.34
2018-09-12T13:04:01.885Z,95202.67
2018-09-12T13:06:30.786Z,95211.02
2018-09-12T13:08:59.773Z,95214.20
2018-09-12T13:11:28.697Z,95202.33
2018-09-12T13:13:57.564Z,95199.35
2018-09-12T13:16:26.540Z,95200.94
2018-09-12T13:18:55.472Z,95201.97
2018-09-12T13:21:24.513Z,95204.11
2018-09-12T13:23:53.377Z,95196.65
2018-09-12T13:26:22.291Z,95195.28
2018-09-12T13:28:51.096Z,95184.41
2018-09-12T13:31:20.019Z,95193.20
2018-09-12T13:33:49.154Z,95192.19
2018-09-12T13:36:18.135Z,95196.19
2018-09-12T13:38:47.117Z,95194.46
2018-09-12T13:41:15.970Z,95193.73
2018-09-12T13:43:45.024Z,95187.98
2018-09-12T13:46:13.855Z,95192.36
2018-09-12T13:48:42.716Z,95185.88
2018-09-12T13:51:11.675Z,95191.17
2018-09-12T13:53:40.599Z,95186.39
2018-09-12T13:56:09.417Z,95183.80
2018-09-12T13:58:38.354Z,95180.90
2018-09-12T14:01:07.516Z,95177.53
2018-09-12T14:03:36.447Z,95174.28
2018-09-12T14:06:05.435Z,95174.27
2018-09-12T14:08:34.354Z,95172.31
2018-09-12T14:11:03.178Z,95171.42
2018-09-12T14:13:32.015Z,95168.53
2018-09-12T14:16:00.818Z,95172.04
2018-09-12T14:18:29.718Z,95170.41
2018-09-12T14:20:58.538Z,95173.23
2018-09-12T14:23:27.400Z,95173.86
2018-09-12T14:25:56.227Z,95176.47
2018-09-12T14:28:25.063Z,95173.05
2018-09-12T14:30:53.910Z,95173.33
2018-09-12T14:33:22.919Z,95177.50
2018-09-12T14:35:51.774Z,95167.75
2018-09-12T14:38:20.611Z,95163.03
2018-09-12T14:40:49.483Z,95166.55
2018-09-12T14:43:18.395Z,95166.41
2018-09-12T14:45:47.894Z,95161.65
2018-09-12T14:48:16.809Z,95158.75
2018-09-12T14:50:45.849Z,95158.98
2018-09-12T14:53:14.623Z,95158.31
2018-09-12T14:55:45.783Z,95148.06
2018-09-12T14:58:15.258Z,95158.63
2018-09-12T15:00:44.122Z,95159.06
2018-09-12T15:03:12.795Z,95156.94
2018-09-12T15:05:41.534Z,95149.65
2018-09-12T15:08:10.622Z,95150.83
2018-09-12T15:10:39.498Z,95152.52
2018-09-12T15:13:08.288Z,95146.45
2018-09-12T15:15:37.085Z,95143.48
2018-09-12T15:18:06.081Z,95144.55
2018-09-12T15:20:34.841Z,95144.33
2018-09-12T15:23:03.593Z,95144.95
2018-09-12T15:25:32.270Z,95151.83
2018-09-12T15:28:00.999Z,95150.57
2018-09-12T15:30:29.784Z,95153.56
2018-09-12T15:32:58.508Z,95153.25
2018-09-12T15:35:27.236Z,95152.59
2018-09-12T15:37:55.964Z,95150.83
2018-09-12T15:40:25.150Z,95151.45
2018-09-12T15:42:53.876Z,95148.59
2018-09-12T15:45:22.565Z,95150.05
2018-09-12T15:47:55.549Z,95146.19
2018-09-12T15:50:25.406Z,95145.37
2018-09-12T15:52:54.886Z,95139.42
2018-09-12T15:55:23.851Z,95137.39
2018-09-12T15:57:52.553Z,95139.47
2018-09-12T16:00:23.080Z,95136.39
2018-09-12T16:02:55.885Z,95135.39
2018-09-12T16:05:24.614Z,95130.93
2018-09-12T16:07:54.001Z,95130.39
2018-09-12T16:10:22.802Z,95128.09
2018-09-12T16:12:51.567Z,95123.44
2018-09-12T16:15:20.303Z,95123.44
2018-09-12T16:17:49.031Z,95124.98
2018-09-12T16:20:17.941Z,95120.47
2018-09-12T16:22:55.802Z,95126.09
2018-09-12T16:28:31.582Z,95130.05
2018-09-12T16:31:00.352Z,95129.60
2018-09-12T16:33:29.150Z,95129.27
2018-09-12T16:35:57.997Z,95124.59
2018-09-12T16:38:26.746Z,95123.47
2018-09-12T16:40:55.578Z,95126.03
2018-09-12T16:43:24.332Z,95127.07
2018-09-12T16:45:53.202Z,95123.38
2018-09-12T16:48:21.933Z,95120.33
2018-09-12T16:50:50.631Z,95125.88
2018-09-12T16:53:19.479Z,95120.68
2018-09-12T16:55:48.185Z,95123.70
2018-09-12T16:58:16.900Z,95126.05
2018-09-12T17:00:45.726Z,95120.73
2018-09-12T17:03:14.438Z,95126.87
2018-09-12T17:05:43.775Z,95130.05
2018-09-12T17:08:12.549Z,95126.27
2018-09-12T17:10:41.367Z,95120.88
2018-09-12T17:13:10.040Z,95122.59
2018-09-12T17:15:38.784Z,95121.70
2018-09-12T17:18:07.684Z,95130.58
2018-09-12T17:20:36.465Z,95132.27
2018-09-12T17:23:05.271Z,95132.11
2018-09-12T17:25:34.050Z,95129.94
2018-09-12T17:28:02.813Z,95132.25
2018-09-12T17:30:31.653Z,95138.11
2018-09-12T17:33:00.785Z,95142.67
2018-09-12T17:35:29.681Z,95139.38
2018-09-12T17:37:58.465Z,95143.19
2018-09-12T17:40:27.179Z,95137.28
2018-09-12T17:42:55.987Z,95140.37
2018-09-12T17:45:25.388Z,95140.84
2018-09-12T17:47:54.268Z,95140.44
2018-09-12T17:50:22.978Z,95142.91
2018-09-12T17:52:51.639Z,95147.78
2018-09-12T17:55:20.427Z,95145.20
2018-09-12T17:57:49.173Z,95150.38
2018-09-12T18:00:17.955Z,95148.70
2018-09-12T18:02:46.787Z,95147.67
2018-09-12T18:05:15.566Z,95158.78
2018-09-12T18:07:44.611Z,95153.19
2018-09-12T18:10:13.512Z,95160.36
2018-09-12T18:12:42.221Z,95166.36
2018-09-12T18:15:11.023Z,95160.97
2018-09-12T18:17:39.783Z,95160.32
2018-09-12T18:20:08.578Z,95161.64
2018-09-12T18:22:37.328Z,95157.67
2018-09-12T18:25:07.977Z,95165.67
2018-09-12T18:27:36.702Z,95162.00
2018-09-12T18:30:09.596Z,95170.82
2018-09-12T18:32:38.464Z,95170.33
2018-09-12T18:35:07.299Z,95174.85
2018-09-12T18:37:36.105Z,95177.88
2018-09-12T18:40:05.102Z,95183.53
2018-09-12T18:42:33.926Z,95181.72
2018-09-12T18:45:02.725Z,95182.38
2018-09-12T18:47:31.520Z,95181.66
2018-09-12T18:50:00.432Z,95181.83
2018-09-12T18:52:29.091Z,95182.23
2018-09-12T18:54:58.036Z,95190.30
2018-09-12T18:57:26.834Z,95181.38
2018-09-12T18:59:55.708Z,95186.66
2018-09-12T19:02:24.492Z,95184.09
2018-09-12T19:04:53.419Z,95185.87
2018-09-12T19:07:22.310Z,95179.39
2018-09-12T19:09:51.062Z,95181.80
2018-09-12T19:12:19.964Z,95175.73
2018-09-12T19:14:48.766Z,95182.86
2018-09-12T19:17:17.420Z,95179.78
2018-09-12T19:19:46.129Z,95174.53
2018-09-12T19:22:14.936Z,95175.33
2018-09-12T19:24:43.700Z,95180.70
2018-09-12T19:27:12.617Z,95182.89
2018-09-12T19:29:41.334Z,95180.20
2018-09-12T19:32:10.111Z,95183.63
2018-09-12T19:34:38.853Z,95177.86
2018-09-12T19:37:07.819Z,95177.33
2018-09-12T19:39:36.699Z,95175.84
2018-09-12T19:42:05.733Z,95172.48
2018-09-12T19:44:34.429Z,95179.09
2018-09-12T19:47:03.846Z,95168.28
2018-09-12T19:49:32.545Z,95173.05
2018-09-12T19:52:01.266Z,95167.20
2018-09-12T19:54:30.037Z,95167.85
2018-09-12T19:56:58.754Z,95167.77
2018-09-12T19:59:27.500Z,95170.77
2018-09-12T20:01:56.149Z,95172.32
2018-09-12T20:04:25.132Z,95169.37
2018-09-12T20:06:53.921Z,95168.52
2018-09-12T20:09:22.705Z,95170.80
2018-09-12T20:12:46.247Z,95169.03
2018-09-12T20:15:15.064Z,95169.56
2018-09-12T20:17:44.050Z,95174.31
2018-09-12T20:20:12.784Z,95169.31
2018-09-12T20:22:41.646Z,95172.02
2018-09-12T20:25:10.645Z,95172.70
2018-09-12T20:27:39.465Z,95172.62
2018-09-12T20:30:08.458Z,95169.16
2018-09-12T20:32:37.113Z,95169.65
2018-09-12T20:35:05.813Z,95168.55
2018-09-12T20:37:34.855Z,95169.86
2018-09-12T20:40:03.706Z,95162.36
2018-09-12T20:42:33.646Z,95162.89
2018-09-12T20:45:02.358Z,95158.41
2018-09-12T20:47:31.117Z,95162.17
2018-09-12T20:50:00.159Z,95160.92
2018-09-12T20:52:28.944Z,95162.00
2018-09-12T20:54:57.666Z,95162.25
2018-09-12T20:57:26.594Z,95159.89
2018-09-12T20:59:55.443Z,95157.23
2018-09-12T21:02:24.177Z,95160.72
2018-09-12T21:04:53.886Z,95157.53
2018-09-12T21:07:22.638Z,95165.00
2018-09-12T21:09:52.638Z,95157.83
2018-09-12T21:12:21.676Z,95164.51
2018-09-12T21:14:50.350Z,95158.11
2018-09-12T21:17:19.078Z,95155.89
2018-09-12T21:19:47.877Z,95161.54
2018-09-12T21:22:16.596Z,95159.55
2018-09-12T21:24:45.311Z,95164.83
2018-09-12T21:27:14.126Z,95166.06
2018-09-12T21:29:42.974Z,95164.20
2018-09-12T21:32:11.781Z,95160.56
2018-09-12T21:34:40.567Z,95157.12
2018-09-12T21:37:09.248Z,95155.23
2018-09-12T21:39:38.082Z,95150.89
2018-09-12T21:42:06.881Z,95145.35
2018-09-12T21:44:35.625Z,95141.53
2018-09-12T21:47:04.439Z,95142.75
2018-09-12T21:49:33.158Z,95138.52
2018-09-12T21:52:01.879Z,95139.77
2018-09-12T21:54:30.759Z,95143.31
2018-09-12T21:56:59.562Z,95145.14
2018-09-12T21:59:28.334Z,95142.83
2018-09-12T22:01:57.102Z,95137.16
2018-09-12T22:04:25.914Z,95140.88
2018-09-12T22:06:54.696Z,95144.14
2018-09-12T22:09:23.376Z,95143.41
2018-09-12T22:11:52.074Z,95142.83
2018-09-12T22:14:20.822Z,95142.06
2018-09-12T22:16:49.507Z,95138.76
2018-09-12T22:19:18.184Z,95140.17
2018-09-12T22:21:47.003Z,95149.56
2018-09-12T22:24:15.737Z,95146.33
2018-09-12T22:26:44.496Z,95138.52
2018-09-12T22:29:13.187Z,95144.00
2018-09-12T22:31:41.895Z,95143.69
2018-09-12T22:34:10.618Z,95139.05
2018-09-12T22:36:39.444Z,95135.80
2018-09-12T22:39:10.399Z,95136.27
2018-09-12T22:41:39.400Z,95136.17
2018-09-12T22:44:08.074Z,95132.09
2018-09-12T22:46:36.804Z,95135.74
2018-09-12T22:49:05.590Z,95140.00
2018-09-12T22:51:34.346Z,95134.30
2018-09-12T22:54:03.099Z,95129.87
2018-09-12T22:56:31.843Z,95129.50
2018-09-12T22:59:01.348Z,95120.11
2018-09-12T23:01:30.011Z,95125.16
2018-09-12T23:03:58.655Z,95120.29
2018-09-12T23:06:27.375Z,95118.48
2018-09-12T23:08:56.319Z,95122.64
2018-09-12T23:11:25.154Z,95123.16
2018-09-12T23:13:53.903Z,95121.35
2018-09-12T23:16:22.675Z,95112.97
2018-09-12T23:18:51.424Z,95111.24
2018-09-12T23:21:20.232Z,95114.80
2018-09-12T23:23:49.034Z,95118.66
2018-09-12T23:26:17.824Z,95116.50
2018-09-12T23:28:46.523Z,95108.11
2018-09-12T23:31:15.207Z,95107.03
2018-09-12T23:33:43.839Z,95117.36
2018-09-12T23:36:12.535Z,95116.13
2018-09-12T23:38:41.295Z,95113.61
2018-09-12T23:41:10.023Z,95115.73
2018-09-12T23:43:38.737Z,95112.18
2018-09-12T23:46:07.616Z,95107.86
2018-09-12T23:48:36.465Z,95099.56
2018-09-12T23:51:05.279Z,95107.27
2018-09-12T23:53:34.012Z,95101.98
2018-09-12T23:56:02.731Z,95096.02
2018-09-12T23:58:31.570Z,95095.63
